sensor_id;sensor_type;location;lat;lon;timestamp;temperature;humidity
51486;DHT22;37565;51.352;6.412;2023-04-24T15:03:29;19.50;92.40
51486;DHT22;37565;51.352;6.412;2023-04-24T15:05:58;19.50;92.80
51486;DHT22;37565;51.352;6.412;2023-04-24T15:08:26;19.60;92.30
51486;DHT22;37565;51.352;6.412;2023-04-24T15:10:54;19.60;92.00
51486;DHT22;37565;51.352;6.412;2023-04-24T15:13:22;19.70;91.80
51486;DHT22;37565;51.352;6.412;2023-04-24T15:15:50;19.70;91.70
51486;DHT22;37565;51.352;6.412;2023-04-24T15:18:17;19.80;91.70
51486;DHT22;37565;51.352;6.412;2023-04-24T15:20:47;19.80;91.60
51486;DHT22;37565;51.352;6.412;2023-04-24T15:23:15;19.80;91.70
51486;DHT22;37565;51.352;6.412;2023-04-24T15:25:43;19.80;91.70
51486;DHT22;37565;51.352;6.412;2023-04-24T15:28:12;19.80;91.80
51486;DHT22;37565;51.352;6.412;2023-04-24T15:30:40;19.90;92.00
51486;DHT22;37565;51.352;6.412;2023-04-24T15:33:08;19.80;91.80
51486;DHT22;37565;51.352;6.412;2023-04-24T15:35:36;19.90;92.10
51486;DHT22;37565;51.352;6.412;2023-04-24T15:38:05;19.90;92.10
51486;DHT22;37565;51.352;6.412;2023-04-24T15:40:33;19.80;92.20
51486;DHT22;37565;51.352;6.412;2023-04-24T15:43:01;19.90;92.10
51486;DHT22;37565;51.352;6.412;2023-04-24T15:45:29;19.90;92.10
51486;DHT22;37565;51.352;6.412;2023-04-24T15:47:57;19.90;92.00
51486;DHT22;37565;51.352;6.412;2023-04-24T15:50:26;19.90;91.80
51486;DHT22;37565;51.352;6.412;2023-04-24T15:52:54;19.90;91.70
51486;DHT22;37565;51.352;6.412;2023-04-24T15:55:24;19.90;91.60
51486;DHT22;37565;51.352;6.412;2023-04-24T15:57:52;19.90;91.70
51486;DHT22;37565;51.352;6.412;2023-04-24T16:00:20;19.90;91.50
51486;DHT22;37565;51.352;6.412;2023-04-24T16:02:48;19.90;91.60
51486;DHT22;37565;51.352;6.412;2023-04-24T16:05:17;19.80;91.70
51486;DHT22;37565;51.352;6.412;2023-04-24T16:07:48;19.90;91.90
51486;DHT22;37565;51.352;6.412;2023-04-24T16:10:16;19.90;92.00
51486;DHT22;37565;51.352;6.412;2023-04-24T16:12:45;19.90;92.10
51486;DHT22;37565;51.352;6.412;2023-04-24T16:15:13;19.90;92.00
51486;DHT22;37565;51.352;6.412;2023-04-24T16:17:41;19.90;91.90
51486;DHT22;37565;51.352;6.412;2023-04-24T16:20:10;19.90;92.00
51486;DHT22;37565;51.352;6.412;2023-04-24T16:22:39;19.90;92.00
51486;DHT22;37565;51.352;6.412;2023-04-24T16:25:08;19.90;92.00
51486;DHT22;37565;51.352;6.412;2023-04-24T16:27:36;19.80;92.00
51486;DHT22;37565;51.352;6.412;2023-04-24T16:30:07;19.90;92.00
51486;DHT22;37565;51.352;6.412;2023-04-24T16:32:35;19.80;91.90
51486;DHT22;37565;51.352;6.412;2023-04-24T16:35:04;19.80;92.00
51486;DHT22;37565;51.352;6.412;2023-04-24T16:37:32;19.80;91.80
51486;DHT22;37565;51.352;6.412;2023-04-24T16:40:00;19.80;91.70
51486;DHT22;37565;51.352;6.412;2023-04-24T16:42:30;19.80;91.70
51486;DHT22;37565;51.352;6.412;2023-04-24T16:44:58;19.80;91.80
51486;DHT22;37565;51.352;6.412;2023-04-24T16:47:27;19.80;92.00
51486;DHT22;37565;51.352;6.412;2023-04-24T16:49:55;19.80;92.00
51486;DHT22;37565;51.352;6.412;2023-04-24T16:52:23;19.80;92.30
51486;DHT22;37565;51.352;6.412;2023-04-24T16:54:51;19.80;92.30
51486;DHT22;37565;51.352;6.412;2023-04-24T16:57:19;19.80;92.30
51486;DHT22;37565;51.352;6.412;2023-04-24T16:59:47;19.80;92.50
51486;DHT22;37565;51.352;6.412;2023-04-24T17:02:15;19.80;92.30
51486;DHT22;37565;51.352;6.412;2023-04-24T17:04:44;19.80;92.30
51486;DHT22;37565;51.352;6.412;2023-04-24T17:07:13;19.80;92.20
51486;DHT22;37565;51.352;6.412;2023-04-24T17:09:43;19.80;92.40
51486;DHT22;37565;51.352;6.412;2023-04-24T17:12:11;19.80;92.10
51486;DHT22;37565;51.352;6.412;2023-04-24T17:14:38;19.80;92.60
51486;DHT22;37565;51.352;6.412;2023-04-24T17:17:06;19.80;92.50
51486;DHT22;37565;51.352;6.412;2023-04-24T17:19:34;19.80;92.50
51486;DHT22;37565;51.352;6.412;2023-04-24T17:22:04;19.80;92.60
51486;DHT22;37565;51.352;6.412;2023-04-24T17:24:32;19.70;92.50
51486;DHT22;37565;51.352;6.412;2023-04-24T17:27:00;19.80;92.40
51486;DHT22;37565;51.352;6.412;2023-04-24T17:29:40;19.70;92.40
51486;DHT22;37565;51.352;6.412;2023-04-24T17:32:08;19.70;92.00
51486;DHT22;37565;51.352;6.412;2023-04-24T17:34:36;19.70;92.00
51486;DHT22;37565;51.352;6.412;2023-04-24T17:37:06;19.70;91.60
51486;DHT22;37565;51.352;6.412;2023-04-24T17:39:34;19.70;91.80
51486;DHT22;37565;51.352;6.412;2023-04-24T17:42:02;19.70;91.60
51486;DHT22;37565;51.352;6.412;2023-04-24T17:44:32;19.70;91.80
51486;DHT22;37565;51.352;6.412;2023-04-24T17:46:59;19.70;91.60
51486;DHT22;37565;51.352;6.412;2023-04-24T17:49:27;19.70;91.60
51486;DHT22;37565;51.352;6.412;2023-04-24T17:51:56;19.70;91.50
51486;DHT22;37565;51.352;6.412;2023-04-24T17:54:25;19.70;91.60
51486;DHT22;37565;51.352;6.412;2023-04-24T17:56:53;19.60;91.60
51486;DHT22;37565;51.352;6.412;2023-04-24T17:59:21;19.60;91.60
51486;DHT22;37565;51.352;6.412;2023-04-24T18:01:49;19.60;91.60
51486;DHT22;37565;51.352;6.412;2023-04-24T18:04:18;19.60;91.50
51486;DHT22;37565;51.352;6.412;2023-04-24T18:06:47;19.60;91.60
51486;DHT22;37565;51.352;6.412;2023-04-24T18:09:15;19.60;91.50
51486;DHT22;37565;51.352;6.412;2023-04-24T18:11:45;19.60;91.60
51486;DHT22;37565;51.352;6.412;2023-04-24T18:14:15;19.50;92.00
51486;DHT22;37565;51.352;6.412;2023-04-24T18:16:43;19.50;92.10
51486;DHT22;37565;51.352;6.412;2023-04-24T18:19:11;19.50;92.20
51486;DHT22;37565;51.352;6.412;2023-04-24T18:21:38;19.50;92.30
51486;DHT22;37565;51.352;6.412;2023-04-24T18:24:07;19.50;92.10
51486;DHT22;37565;51.352;6.412;2023-04-24T18:26:35;19.50;92.30
51486;DHT22;37565;51.352;6.412;2023-04-24T18:29:04;19.50;92.20
51486;DHT22;37565;51.352;6.412;2023-04-24T18:31:32;19.50;92.40
51486;DHT22;37565;51.352;6.412;2023-04-24T18:34:00;19.50;92.20
51486;DHT22;37565;51.352;6.412;2023-04-24T18:36:28;19.50;92.50
51486;DHT22;37565;51.352;6.412;2023-04-24T18:38:56;19.50;92.50
51486;DHT22;37565;51.352;6.412;2023-04-24T18:41:24;19.50;92.70
51486;DHT22;37565;51.352;6.412;2023-04-24T18:43:52;19.40;92.70
51486;DHT22;37565;51.352;6.412;2023-04-24T18:46:24;19.50;92.80
51486;DHT22;37565;51.352;6.412;2023-04-24T18:48:52;19.50;92.60
51486;DHT22;37565;51.352;6.412;2023-04-24T18:51:21;19.50;92.40
51486;DHT22;37565;51.352;6.412;2023-04-24T18:53:49;19.40;92.60
51486;DHT22;37565;51.352;6.412;2023-04-24T18:56:16;19.40;92.80
51486;DHT22;37565;51.352;6.412;2023-04-24T18:58:45;19.40;93.20
51486;DHT22;37565;51.352;6.412;2023-04-24T19:01:13;19.40;92.40
51486;DHT22;37565;51.352;6.412;2023-04-24T19:03:43;19.30;92.40
51486;DHT22;37565;51.352;6.412;2023-04-24T19:06:11;19.40;92.80
51486;DHT22;37565;51.352;6.412;2023-04-24T19:08:39;19.40;91.80
51486;DHT22;37565;51.352;6.412;2023-04-24T19:11:08;19.40;92.20
51486;DHT22;37565;51.352;6.412;2023-04-24T19:13:36;19.40;92.50
51486;DHT22;37565;51.352;6.412;2023-04-24T19:16:04;19.40;92.40
51486;DHT22;37565;51.352;6.412;2023-04-24T19:18:32;19.40;92.60
51486;DHT22;37565;51.352;6.412;2023-04-24T19:21:01;19.40;92.30
51486;DHT22;37565;51.352;6.412;2023-04-24T19:23:29;19.40;92.60
51486;DHT22;37565;51.352;6.412;2023-04-24T19:26:02;19.40;92.70
51486;DHT22;37565;51.352;6.412;2023-04-24T19:28:30;19.40;92.60
51486;DHT22;37565;51.352;6.412;2023-04-24T19:30:58;19.40;92.40
51486;DHT22;37565;51.352;6.412;2023-04-24T19:33:26;19.50;92.90
51486;DHT22;37565;51.352;6.412;2023-04-24T19:35:54;19.50;92.80
51486;DHT22;37565;51.352;6.412;2023-04-24T19:38:23;19.50;92.80
51486;DHT22;37565;51.352;6.412;2023-04-24T19:40:51;19.50;92.70
51486;DHT22;37565;51.352;6.412;2023-04-24T19:43:19;19.50;92.80
51486;DHT22;37565;51.352;6.412;2023-04-24T19:45:47;19.50;92.70
51486;DHT22;37565;51.352;6.412;2023-04-24T19:48:16;19.50;92.90
51486;DHT22;37565;51.352;6.412;2023-04-24T19:50:44;19.50;93.10
51486;DHT22;37565;51.352;6.412;2023-04-24T19:53:12;19.50;92.90
51486;DHT22;37565;51.352;6.412;2023-04-24T19:55:41;19.50;92.90
51486;DHT22;37565;51.352;6.412;2023-04-24T19:58:09;19.50;93.00
51486;DHT22;37565;51.352;6.412;2023-04-24T20:00:37;19.50;92.70
51486;DHT22;37565;51.352;6.412;2023-04-24T20:03:07;19.50;92.70
51486;DHT22;37565;51.352;6.412;2023-04-24T20:05:44;19.50;93.20
51486;DHT22;37565;51.352;6.412;2023-04-24T20:08:12;19.50;92.70
51486;DHT22;37565;51.352;6.412;2023-04-24T20:10:41;19.50;92.70
51486;DHT22;37565;51.352;6.412;2023-04-24T20:13:11;19.50;92.40
51486;DHT22;37565;51.352;6.412;2023-04-24T20:15:39;19.50;92.50
51486;DHT22;37565;51.352;6.412;2023-04-24T20:18:07;19.60;92.50
51486;DHT22;37565;51.352;6.412;2023-04-24T20:20:35;19.60;92.50
51486;DHT22;37565;51.352;6.412;2023-04-24T20:23:04;19.60;92.60
51486;DHT22;37565;51.352;6.412;2023-04-24T20:25:32;19.60;92.50
51486;DHT22;37565;51.352;6.412;2023-04-24T20:28:02;19.60;92.40
51486;DHT22;37565;51.352;6.412;2023-04-24T20:30:30;19.60;92.30
51486;DHT22;37565;51.352;6.412;2023-04-24T20:32:58;19.60;92.40
51486;DHT22;37565;51.352;6.412;2023-04-24T20:35:26;19.60;92.40
51486;DHT22;37565;51.352;6.412;2023-04-24T20:37:54;19.50;92.00
51486;DHT22;37565;51.352;6.412;2023-04-24T20:40:22;19.60;92.10
51486;DHT22;37565;51.352;6.412;2023-04-24T20:42:50;19.50;92.50
51486;DHT22;37565;51.352;6.412;2023-04-24T20:45:20;19.50;92.50
51486;DHT22;37565;51.352;6.412;2023-04-24T20:47:49;19.50;92.50
51486;DHT22;37565;51.352;6.412;2023-04-24T20:50:17;19.50;92.30
51486;DHT22;37565;51.352;6.412;2023-04-24T20:52:46;19.50;92.50
51486;DHT22;37565;51.352;6.412;2023-04-24T20:55:13;19.60;92.30
51486;DHT22;37565;51.352;6.412;2023-04-24T20:57:42;19.50;92.10
51486;DHT22;37565;51.352;6.412;2023-04-24T21:00:11;19.50;92.20
51486;DHT22;37565;51.352;6.412;2023-04-24T21:02:41;19.50;92.20
51486;DHT22;37565;51.352;6.412;2023-04-24T21:05:09;19.50;92.40
51486;DHT22;37565;51.352;6.412;2023-04-24T21:07:37;19.50;92.00
51486;DHT22;37565;51.352;6.412;2023-04-24T21:10:06;19.50;92.10
51486;DHT22;37565;51.352;6.412;2023-04-24T21:12:34;19.50;92.20
51486;DHT22;37565;51.352;6.412;2023-04-24T21:15:02;19.50;92.20
51486;DHT22;37565;51.352;6.412;2023-04-24T21:17:31;19.50;92.10
51486;DHT22;37565;51.352;6.412;2023-04-24T21:20:01;19.50;92.10
51486;DHT22;37565;51.352;6.412;2023-04-24T21:22:29;19.50;92.20
51486;DHT22;37565;51.352;6.412;2023-04-24T21:24:57;19.50;92.00
51486;DHT22;37565;51.352;6.412;2023-04-24T21:27:25;19.50;91.90
51486;DHT22;37565;51.352;6.412;2023-04-24T21:29:53;19.40;92.10
51486;DHT22;37565;51.352;6.412;2023-04-24T21:32:21;19.40;92.20
51486;DHT22;37565;51.352;6.412;2023-04-24T21:34:49;19.50;92.00
51486;DHT22;37565;51.352;6.412;2023-04-24T21:37:18;19.50;92.20
51486;DHT22;37565;51.352;6.412;2023-04-24T21:39:46;19.50;92.10
51486;DHT22;37565;51.352;6.412;2023-04-24T21:42:14;19.50;92.10
51486;DHT22;37565;51.352;6.412;2023-04-24T21:44:42;19.50;92.10
51486;DHT22;37565;51.352;6.412;2023-04-24T21:47:10;19.50;92.20
51486;DHT22;37565;51.352;6.412;2023-04-24T21:49:38;19.50;92.30
51486;DHT22;37565;51.352;6.412;2023-04-24T21:52:06;19.50;92.30
51486;DHT22;37565;51.352;6.412;2023-04-24T21:54:35;19.50;92.30
51486;DHT22;37565;51.352;6.412;2023-04-24T21:57:03;19.50;92.00
51486;DHT22;37565;51.352;6.412;2023-04-24T21:59:32;19.60;92.20
51486;DHT22;37565;51.352;6.412;2023-04-24T22:02:00;19.50;92.20
51486;DHT22;37565;51.352;6.412;2023-04-24T22:04:29;19.50;92.20
51486;DHT22;37565;51.352;6.412;2023-04-24T22:06:58;19.50;92.20
51486;DHT22;37565;51.352;6.412;2023-04-24T22:09:26;19.50;92.30
51486;DHT22;37565;51.352;6.412;2023-04-24T22:11:55;19.50;92.20
51486;DHT22;37565;51.352;6.412;2023-04-24T22:14:23;19.50;92.20
51486;DHT22;37565;51.352;6.412;2023-04-24T22:16:51;19.50;92.30
